sensor_id;sensor_type;location;lat;lon;timestamp;temperature;humidity
3488;DHT22;38546;48.170;11.724;2023-04-15T00:00:02;6.00;99.90
3488;DHT22;38546;48.170;11.724;2023-04-15T00:02:52;6.10;99.90
3488;DHT22;38546;48.170;11.724;2023-04-15T00:05:41;6.10;99.90
3488;DHT22;38546;48.170;11.724;2023-04-15T00:08:31;6.20;99.90
3488;DHT22;38546;48.170;11.724;2023-04-15T00:11:20;6.10;99.90
3488;DHT22;38546;48.170;11.724;2023-04-15T00:14:09;6.00;99.90
3488;DHT22;38546;48.170;11.724;2023-04-15T00:16:59;6.10;99.90
3488;DHT22;38546;48.170;11.724;2023-04-15T00:19:49;6.00;99.90
3488;DHT22;38546;48.170;11.724;2023-04-15T00:22:38;6.00;99.90
3488;DHT22;38546;48.170;11.724;2023-04-15T00:25:29;5.90;99.90
3488;DHT22;38546;48.170;11.724;2023-04-15T00:28:18;6.00;99.90
3488;DHT22;38546;48.170;11.724;2023-04-15T00:31:07;5.90;99.90
3488;DHT22;38546;48.170;11.724;2023-04-15T00:33:58;5.90;99.90
3488;DHT22;38546;48.170;11.724;2023-04-15T00:36:48;5.80;99.90
3488;DHT22;38546;48.170;11.724;2023-04-15T00:39:39;5.80;99.90
3488;DHT22;38546;48.170;11.724;2023-04-15T00:42:29;5.90;99.90
3488;DHT22;38546;48.170;11.724;2023-04-15T00:45:18;5.90;99.90
3488;DHT22;38546;48.170;11.724;2023-04-15T00:48:07;5.80;99.90
3488;DHT22;38546;48.170;11.724;2023-04-15T00:50:57;5.90;99.90
3488;DHT22;38546;48.170;11.724;2023-04-15T00:53:47;5.90;99.90
3488;DHT22;38546;48.170;11.724;2023-04-15T00:56:37;5.90;99.90
3488;DHT22;38546;48.170;11.724;2023-04-15T00:59:28;5.90;99.90
3488;DHT22;38546;48.170;11.724;2023-04-15T01:02:18;5.90;99.90
3488;DHT22;38546;48.170;11.724;2023-04-15T01:05:08;5.90;99.90
3488;DHT22;38546;48.170;11.724;2023-04-15T01:07:57;6.00;99.90
3488;DHT22;38546;48.170;11.724;2023-04-15T01:10:47;5.90;99.90
3488;DHT22;38546;48.170;11.724;2023-04-15T01:13:37;5.90;99.90
3488;DHT22;38546;48.170;11.724;2023-04-15T01:16:26;5.90;99.90
3488;DHT22;38546;48.170;11.724;2023-04-15T01:19:16;6.00;99.90
3488;DHT22;38546;48.170;11.724;2023-04-15T01:22:06;6.00;99.90
3488;DHT22;38546;48.170;11.724;2023-04-15T01:25:58;6.00;99.90
3488;DHT22;38546;48.170;11.724;2023-04-15T01:28:47;5.90;99.90
3488;DHT22;38546;48.170;11.724;2023-04-15T01:31:37;5.90;99.90
3488;DHT22;38546;48.170;11.724;2023-04-15T01:34:26;5.90;99.90
3488;DHT22;38546;48.170;11.724;2023-04-15T01:37:15;5.90;99.90
3488;DHT22;38546;48.170;11.724;2023-04-15T01:40:06;6.00;99.90
3488;DHT22;38546;48.170;11.724;2023-04-15T01:42:56;5.90;99.90
3488;DHT22;38546;48.170;11.724;2023-04-15T01:45:45;6.00;99.90
3488;DHT22;38546;48.170;11.724;2023-04-15T01:48:34;5.90;99.90
3488;DHT22;38546;48.170;11.724;2023-04-15T01:51:24;5.90;99.90
3488;DHT22;38546;48.170;11.724;2023-04-15T01:54:13;6.00;99.90
3488;DHT22;38546;48.170;11.724;2023-04-15T01:57:02;5.90;99.90
3488;DHT22;38546;48.170;11.724;2023-04-15T01:59:52;6.00;99.90
3488;DHT22;38546;48.170;11.724;2023-04-15T02:02:41;6.00;99.90
3488;DHT22;38546;48.170;11.724;2023-04-15T02:05:31;6.00;99.90
3488;DHT22;38546;48.170;11.724;2023-04-15T02:08:20;5.90;99.90
3488;DHT22;38546;48.170;11.724;2023-04-15T02:11:09;5.80;99.90
3488;DHT22;38546;48.170;11.724;2023-04-15T02:13:58;5.90;99.90
3488;DHT22;38546;48.170;11.724;2023-04-15T02:16:47;5.90;99.90
3488;DHT22;38546;48.170;11.724;2023-04-15T02:19:36;6.10;99.90
3488;DHT22;38546;48.170;11.724;2023-04-15T02:22:27;6.00;99.90
3488;DHT22;38546;48.170;11.724;2023-04-15T02:25:17;6.00;99.90
3488;DHT22;38546;48.170;11.724;2023-04-15T02:28:06;6.10;99.90
3488;DHT22;38546;48.170;11.724;2023-04-15T02:30:55;6.20;99.90
3488;DHT22;38546;48.170;11.724;2023-04-15T02:33:46;6.10;99.90
3488;DHT22;38546;48.170;11.724;2023-04-15T02:36:36;6.10;99.90
3488;DHT22;38546;48.170;11.724;2023-04-15T02:39:25;6.20;99.90
3488;DHT22;38546;48.170;11.724;2023-04-15T02:42:15;6.10;99.90
3488;DHT22;38546;48.170;11.724;2023-04-15T02:45:05;6.00;99.90
3488;DHT22;38546;48.170;11.724;2023-04-15T02:47:55;6.00;99.90
3488;DHT22;38546;48.170;11.724;2023-04-15T02:50:45;6.00;99.90
3488;DHT22;38546;48.170;11.724;2023-04-15T02:53:35;6.00;99.90
3488;DHT22;38546;48.170;11.724;2023-04-15T02:56:24;6.00;99.90
3488;DHT22;38546;48.170;11.724;2023-04-15T02:59:14;5.90;99.90
3488;DHT22;38546;48.170;11.724;2023-04-15T03:02:04;6.00;99.90
3488;DHT22;38546;48.170;11.724;2023-04-15T03:04:55;6.10;99.90
3488;DHT22;38546;48.170;11.724;2023-04-15T03:07:44;6.10;99.90
3488;DHT22;38546;48.170;11.724;2023-04-15T03:10:33;6.30;99.90
3488;DHT22;38546;48.170;11.724;2023-04-15T03:13:23;6.20;99.90
3488;DHT22;38546;48.170;11.724;2023-04-15T03:16:12;6.20;99.90
3488;DHT22;38546;48.170;11.724;2023-04-15T03:19:02;6.20;99.90
3488;DHT22;38546;48.170;11.724;2023-04-15T03:21:51;6.10;99.90
3488;DHT22;38546;48.170;11.724;2023-04-15T03:24:40;6.00;99.90
3488;DHT22;38546;48.170;11.724;2023-04-15T03:27:29;6.10;99.90
3488;DHT22;38546;48.170;11.724;2023-04-15T03:30:19;6.00;99.90
3488;DHT22;38546;48.170;11.724;2023-04-15T03:33:08;6.00;99.90
3488;DHT22;38546;48.170;11.724;2023-04-15T03:35:57;6.00;99.90
3488;DHT22;38546;48.170;11.724;2023-04-15T03:38:47;6.00;99.90
3488;DHT22;38546;48.170;11.724;2023-04-15T03:41:38;6.10;99.90
3488;DHT22;38546;48.170;11.724;2023-04-15T03:44:27;6.10;99.90
3488;DHT22;38546;48.170;11.724;2023-04-15T03:47:16;6.00;99.90
3488;DHT22;38546;48.170;11.724;2023-04-15T03:50:06;6.10;99.90
3488;DHT22;38546;48.170;11.724;2023-04-15T03:52:56;6.10;99.90
3488;DHT22;38546;48.170;11.724;2023-04-15T03:55:45;6.20;99.90
3488;DHT22;38546;48.170;11.724;2023-04-15T03:58:35;6.20;99.90
3488;DHT22;38546;48.170;11.724;2023-04-15T04:01:25;6.20;99.90
3488;DHT22;38546;48.170;11.724;2023-04-15T04:04:14;6.30;99.90
3488;DHT22;38546;48.170;11.724;2023-04-15T04:07:03;6.20;99.90
3488;DHT22;38546;48.170;11.724;2023-04-15T04:09:53;6.20;99.90
3488;DHT22;38546;48.170;11.724;2023-04-15T04:12:42;6.10;99.90
3488;DHT22;38546;48.170;11.724;2023-04-15T04:15:31;6.00;99.90
3488;DHT22;38546;48.170;11.724;2023-04-15T04:18:20;6.00;99.90
3488;DHT22;38546;48.170;11.724;2023-04-15T04:21:10;6.00;99.90
3488;DHT22;38546;48.170;11.724;2023-04-15T04:23:59;5.90;99.90
3488;DHT22;38546;48.170;11.724;2023-04-15T04:26:48;6.00;99.90
3488;DHT22;38546;48.170;11.724;2023-04-15T04:29:37;6.00;99.90
3488;DHT22;38546;48.170;11.724;2023-04-15T04:32:27;6.00;99.90
3488;DHT22;38546;48.170;11.724;2023-04-15T04:35:16;5.90;99.90
3488;DHT22;38546;48.170;11.724;2023-04-15T04:38:05;6.10;99.90
3488;DHT22;38546;48.170;11.724;2023-04-15T04:40:54;6.00;99.90
3488;DHT22;38546;48.170;11.724;2023-04-15T04:43:44;6.00;99.90
3488;DHT22;38546;48.170;11.724;2023-04-15T04:46:33;6.10;99.90
3488;DHT22;38546;48.170;11.724;2023-04-15T04:49:22;6.00;99.90
3488;DHT22;38546;48.170;11.724;2023-04-15T04:52:11;6.00;99.90
3488;DHT22;38546;48.170;11.724;2023-04-15T04:55:00;6.20;99.90
3488;DHT22;38546;48.170;11.724;2023-04-15T04:57:49;6.00;99.90
3488;DHT22;38546;48.170;11.724;2023-04-15T05:00:40;5.90;99.90
3488;DHT22;38546;48.170;11.724;2023-04-15T05:03:30;6.00;99.90
3488;DHT22;38546;48.170;11.724;2023-04-15T05:06:19;6.10;99.90
3488;DHT22;38546;48.170;11.724;2023-04-15T05:09:09;6.00;99.90
3488;DHT22;38546;48.170;11.724;2023-04-15T05:11:58;6.10;99.90
3488;DHT22;38546;48.170;11.724;2023-04-15T05:14:49;6.10;99.90
3488;DHT22;38546;48.170;11.724;2023-04-15T05:17:38;6.10;99.90
3488;DHT22;38546;48.170;11.724;2023-04-15T05:20:28;6.20;99.90
3488;DHT22;38546;48.170;11.724;2023-04-15T05:23:17;6.00;99.90
3488;DHT22;38546;48.170;11.724;2023-04-15T05:26:07;6.10;99.90
3488;DHT22;38546;48.170;11.724;2023-04-15T05:28:57;6.10;99.90
3488;DHT22;38546;48.170;11.724;2023-04-15T05:31:46;6.20;99.90
3488;DHT22;38546;48.170;11.724;2023-04-15T05:34:35;6.30;99.90
3488;DHT22;38546;48.170;11.724;2023-04-15T05:37:24;6.20;99.90
3488;DHT22;38546;48.170;11.724;2023-04-15T05:40:13;6.20;99.90
3488;DHT22;38546;48.170;11.724;2023-04-15T05:43:03;6.20;99.90
3488;DHT22;38546;48.170;11.724;2023-04-15T05:45:52;6.30;99.90
3488;DHT22;38546;48.170;11.724;2023-04-15T05:48:42;6.30;99.90
3488;DHT22;38546;48.170;11.724;2023-04-15T05:51:31;6.30;99.90
3488;DHT22;38546;48.170;11.724;2023-04-15T05:54:20;6.40;99.90
3488;DHT22;38546;48.170;11.724;2023-04-15T05:57:12;6.40;99.90
3488;DHT22;38546;48.170;11.724;2023-04-15T06:00:02;6.30;99.90
3488;DHT22;38546;48.170;11.724;2023-04-15T06:02:53;6.30;99.90
3488;DHT22;38546;48.170;11.724;2023-04-15T06:05:42;6.40;99.90
3488;DHT22;38546;48.170;11.724;2023-04-15T06:08:32;6.50;99.90
3488;DHT22;38546;48.170;11.724;2023-04-15T06:11:21;6.40;99.90
3488;DHT22;38546;48.170;11.724;2023-04-15T06:14:10;6.70;99.90
3488;DHT22;38546;48.170;11.724;2023-04-15T06:16:59;6.80;99.90
3488;DHT22;38546;48.170;11.724;2023-04-15T06:19:48;6.90;99.90
3488;DHT22;38546;48.170;11.724;2023-04-15T06:22:38;6.80;99.90
3488;DHT22;38546;48.170;11.724;2023-04-15T06:25:27;6.70;99.90
3488;DHT22;38546;48.170;11.724;2023-04-15T06:28:15;6.70;99.90
3488;DHT22;38546;48.170;11.724;2023-04-15T06:31:04;6.80;99.90
3488;DHT22;38546;48.170;11.724;2023-04-15T06:33:54;7.00;99.90
3488;DHT22;38546;48.170;11.724;2023-04-15T06:36:43;7.10;99.90
3488;DHT22;38546;48.170;11.724;2023-04-15T06:39:31;7.10;99.90
3488;DHT22;38546;48.170;11.724;2023-04-15T06:42:20;7.40;99.90
3488;DHT22;38546;48.170;11.724;2023-04-15T06:45:10;7.50;99.90
3488;DHT22;38546;48.170;11.724;2023-04-15T06:47:59;7.60;99.90
3488;DHT22;38546;48.170;11.724;2023-04-15T06:50:49;7.70;99.90
3488;DHT22;38546;48.170;11.724;2023-04-15T06:53:38;7.80;99.90
3488;DHT22;38546;48.170;11.724;2023-04-15T06:56:30;7.90;99.90
3488;DHT22;38546;48.170;11.724;2023-04-15T06:59:22;7.60;99.90
3488;DHT22;38546;48.170;11.724;2023-04-15T07:02:12;7.80;99.90
3488;DHT22;38546;48.170;11.724;2023-04-15T07:05:03;8.00;99.90
3488;DHT22;38546;48.170;11.724;2023-04-15T07:07:53;8.00;99.90
3488;DHT22;38546;48.170;11.724;2023-04-15T07:10:43;8.00;99.90
3488;DHT22;38546;48.170;11.724;2023-04-15T07:13:32;8.10;99.90
3488;DHT22;38546;48.170;11.724;2023-04-15T07:16:20;8.20;99.90
3488;DHT22;38546;48.170;11.724;2023-04-15T07:19:10;8.20;99.90
3488;DHT22;38546;48.170;11.724;2023-04-15T07:21:59;8.20;99.90
3488;DHT22;38546;48.170;11.724;2023-04-15T07:24:49;8.00;99.90
3488;DHT22;38546;48.170;11.724;2023-04-15T07:27:38;8.00;99.90
3488;DHT22;38546;48.170;11.724;2023-04-15T07:30:27;8.10;99.90
3488;DHT22;38546;48.170;11.724;2023-04-15T07:33:17;8.00;99.90
3488;DHT22;38546;48.170;11.724;2023-04-15T07:36:06;8.30;99.90
3488;DHT22;38546;48.170;11.724;2023-04-15T07:38:55;8.20;99.90
3488;DHT22;38546;48.170;11.724;2023-04-15T07:41:46;8.10;99.90
3488;DHT22;38546;48.170;11.724;2023-04-15T07:44:35;8.20;99.90
3488;DHT22;38546;48.170;11.724;2023-04-15T07:47:25;8.40;99.90
3488;DHT22;38546;48.170;11.724;2023-04-15T07:50:15;8.40;99.90
3488;DHT22;38546;48.170;11.724;2023-04-15T07:53:05;8.40;99.90
3488;DHT22;38546;48.170;11.724;2023-04-15T07:55:55;8.40;99.90
3488;DHT22;38546;48.170;11.724;2023-04-15T07:58:44;8.50;99.90
3488;DHT22;38546;48.170;11.724;2023-04-15T08:01:34;8.60;99.90
3488;DHT22;38546;48.170;11.724;2023-04-15T08:04:24;8.50;99.90
3488;DHT22;38546;48.170;11.724;2023-04-15T08:07:13;8.50;99.90
3488;DHT22;38546;48.170;11.724;2023-04-15T08:10:03;8.80;99.90
3488;DHT22;38546;48.170;11.724;2023-04-15T08:12:53;9.20;99.90
3488;DHT22;38546;48.170;11.724;2023-04-15T08:15:42;9.30;99.90
3488;DHT22;38546;48.170;11.724;2023-04-15T08:18:32;9.20;99.90
3488;DHT22;38546;48.170;11.724;2023-04-15T08:21:21;9.30;99.90
3488;DHT22;38546;48.170;11.724;2023-04-15T08:24:11;9.40;99.90
3488;DHT22;38546;48.170;11.724;2023-04-15T08:27:02;9.50;99.90
3488;DHT22;38546;48.170;11.724;2023-04-15T08:29:52;9.60;99.90
3488;DHT22;38546;48.170;11.724;2023-04-15T08:32:43;9.80;99.90
3488;DHT22;38546;48.170;11.724;2023-04-15T08:35:34;9.90;99.90
3488;DHT22;38546;48.170;11.724;2023-04-15T08:38:24;9.80;99.90
3488;DHT22;38546;48.170;11.724;2023-04-15T08:41:21;9.70;99.90
3488;DHT22;38546;48.170;11.724;2023-04-15T08:44:12;9.90;99.90
3488;DHT22;38546;48.170;11.724;2023-04-15T08:47:03;10.00;99.90
3488;DHT22;38546;48.170;11.724;2023-04-15T08:49:57;9.90;99.90
3488;DHT22;38546;48.170;11.724;2023-04-15T08:52:46;9.90;99.90
3488;DHT22;38546;48.170;11.724;2023-04-15T08:55:41;9.80;99.90
3488;DHT22;38546;48.170;11.724;2023-04-15T08:58:33;9.80;99.90
3488;DHT22;38546;48.170;11.724;2023-04-15T09:01:24;9.70;99.90
3488;DHT22;38546;48.170;11.724;2023-04-15T09:04:15;9.80;99.90
3488;DHT22;38546;48.170;11.724;2023-04-15T09:07:05;10.10;99.90
3488;DHT22;38546;48.170;11.724;2023-04-15T09:09:55;10.20;99.90
3488;DHT22;38546;48.170;11.724;2023-04-15T09:12:44;10.10;99.90
3488;DHT22;38546;48.170;11.724;2023-04-15T09:15:39;10.20;99.90
3488;DHT22;38546;48.170;11.724;2023-04-15T09:18:29;10.30;99.90
3488;DHT22;38546;48.170;11.724;2023-04-15T09:21:20;10.20;99.90
3488;DHT22;38546;48.170;11.724;2023-04-15T09:24:10;10.00;99.90
3488;DHT22;38546;48.170;11.724;2023-04-15T09:26:59;10.00;99.90
3488;DHT22;38546;48.170;11.724;2023-04-15T09:29:49;9.90;99.90
3488;DHT22;38546;48.170;11.724;2023-04-15T09:32:52;9.70;99.90
3488;DHT22;38546;48.170;11.724;2023-04-15T09:36:00;9.50;99.90
3488;DHT22;38546;48.170;11.724;2023-04-15T09:38:59;9.40;99.90
3488;DHT22;38546;48.170;11.724;2023-04-15T09:42:04;9.30;99.90
3488;DHT22;38546;48.170;11.724;2023-04-15T09:44:55;9.30;99.90
3488;DHT22;38546;48.170;11.724;2023-04-15T09:47:44;9.40;99.90
3488;DHT22;38546;48.170;11.724;2023-04-15T09:50:40;9.30;99.90
3488;DHT22;38546;48.170;11.724;2023-04-15T09:53:33;9.20;99.90
3488;DHT22;38546;48.170;11.724;2023-04-15T09:56:33;9.30;99.90
3488;DHT22;38546;48.170;11.724;2023-04-15T09:59:24;9.20;99.90
3488;DHT22;38546;48.170;11.724;2023-04-15T10:02:13;9.30;99.90
3488;DHT22;38546;48.170;11.724;2023-04-15T10:05:03;9.50;99.90
3488;DHT22;38546;48.170;11.724;2023-04-15T10:07:53;9.50;99.90
3488;DHT22;38546;48.170;11.724;2023-04-15T10:10:44;9.70;99.90
3488;DHT22;38546;48.170;11.724;2023-04-15T10:13:35;9.60;99.90
3488;DHT22;38546;48.170;11.724;2023-04-15T10:16:26;9.70;99.90
3488;DHT22;38546;48.170;11.724;2023-04-15T10:19:21;9.90;99.90
3488;DHT22;38546;48.170;11.724;2023-04-15T10:22:14;9.90;99.90
3488;DHT22;38546;48.170;11.724;2023-04-15T10:25:05;9.90;99.90
3488;DHT22;38546;48.170;11.724;2023-04-15T10:27:55;9.90;99.90
3488;DHT22;38546;48.170;11.724;2023-04-15T10:30:46;10.00;99.90
3488;DHT22;38546;48.170;11.724;2023-04-15T10:33:38;10.00;99.90
3488;DHT22;38546;48.170;11.724;2023-04-15T10:36:28;9.90;99.90
3488;DHT22;38546;48.170;11.724;2023-04-15T10:42:51;9.90;99.90
3488;DHT22;38546;48.170;11.724;2023-04-15T10:45:44;10.00;99.90
3488;DHT22;38546;48.170;11.724;2023-04-15T10:48:33;10.00;99.90
3488;DHT22;38546;48.170;11.724;2023-04-15T10:51:29;10.00;99.90
3488;DHT22;38546;48.170;11.724;2023-04-15T10:55:52;9.90;99.90
3488;DHT22;38546;48.170;11.724;2023-04-15T10:58:42;9.80;99.90
3488;DHT22;38546;48.170;11.724;2023-04-15T11:02:04;9.90;99.90
3488;DHT22;38546;48.170;11.724;2023-04-15T11:04:56;10.00;99.90
3488;DHT22;38546;48.170;11.724;2023-04-15T11:07:49;10.20;99.90
3488;DHT22;38546;48.170;11.724;2023-04-15T11:10:52;10.10;99.90
3488;DHT22;38546;48.170;11.724;2023-04-15T11:13:49;10.30;99.90
3488;DHT22;38546;48.170;11.724;2023-04-15T11:16:42;10.20;99.90
3488;DHT22;38546;48.170;11.724;2023-04-15T11:19:38;10.20;99.90
3488;DHT22;38546;48.170;11.724;2023-04-15T11:22:27;10.10;99.90
3488;DHT22;38546;48.170;11.724;2023-04-15T11:25:24;10.20;99.90
3488;DHT22;38546;48.170;11.724;2023-04-15T11:28:14;10.40;99.90
3488;DHT22;38546;48.170;11.724;2023-04-15T11:31:12;10.40;99.90
3488;DHT22;38546;48.170;11.724;2023-04-15T11:34:02;10.40;99.90
3488;DHT22;38546;48.170;11.724;2023-04-15T11:36:57;10.30;99.90
3488;DHT22;38546;48.170;11.724;2023-04-15T11:39:47;10.10;99.90
3488;DHT22;38546;48.170;11.724;2023-04-15T11:42:37;10.00;99.90
3488;DHT22;38546;48.170;11.724;2023-04-15T11:45:27;10.10;99.90
3488;DHT22;38546;48.170;11.724;2023-04-15T11:48:17;10.20;99.90
3488;DHT22;38546;48.170;11.724;2023-04-15T11:51:06;10.40;99.90
3488;DHT22;38546;48.170;11.724;2023-04-15T11:53:56;10.30;99.90
3488;DHT22;38546;48.170;11.724;2023-04-15T11:56:50;10.20;99.90
3488;DHT22;38546;48.170;11.724;2023-04-15T11:59:43;10.20;99.90
3488;DHT22;38546;48.170;11.724;2023-04-15T12:02:36;10.10;99.90
3488;DHT22;38546;48.170;11.724;2023-04-15T12:05:25;9.90;99.90
3488;DHT22;38546;48.170;11.724;2023-04-15T12:08:14;9.90;99.90
3488;DHT22;38546;48.170;11.724;2023-04-15T12:11:03;9.80;99.90
3488;DHT22;38546;48.170;11.724;2023-04-15T12:14:15;9.70;99.90
3488;DHT22;38546;48.170;11.724;2023-04-15T12:17:22;9.70;99.90
3488;DHT22;38546;48.170;11.724;2023-04-15T12:20:12;9.70;99.90
3488;DHT22;38546;48.170;11.724;2023-04-15T12:23:05;9.60;99.90
3488;DHT22;38546;48.170;11.724;2023-04-15T12:25:54;9.60;99.90
3488;DHT22;38546;48.170;11.724;2023-04-15T12:28:44;9.70;99.90
3488;DHT22;38546;48.170;11.724;2023-04-15T12:31:35;9.60;99.90
3488;DHT22;38546;48.170;11.724;2023-04-15T12:34:32;9.90;99.90
3488;DHT22;38546;48.170;11.724;2023-04-15T12:37:25;9.90;99.90
3488;DHT22;38546;48.170;11.724;2023-04-15T12:40:14;9.90;99.90
3488;DHT22;38546;48.170;11.724;2023-04-15T12:43:03;9.80;99.90
3488;DHT22;38546;48.170;11.724;2023-04-15T12:45:52;9.80;99.90
3488;DHT22;38546;48.170;11.724;2023-04-15T12:48:41;9.70;99.90
3488;DHT22;38546;48.170;11.724;2023-04-15T12:51:30;9.70;99.90
3488;DHT22;38546;48.170;11.724;2023-04-15T12:54:20;9.80;99.90
3488;DHT22;38546;48.170;11.724;2023-04-15T12:57:09;9.80;99.90
3488;DHT22;38546;48.170;11.724;2023-04-15T12:59:58;9.90;99.90
3488;DHT22;38546;48.170;11.724;2023-04-15T13:02:48;9.80;99.90
3488;DHT22;38546;48.170;11.724;2023-04-15T13:05:37;9.90;99.90
3488;DHT22;38546;48.170;11.724;2023-04-15T13:08:27;9.80;99.90
3488;DHT22;38546;48.170;11.724;2023-04-15T13:11:16;9.70;99.90
3488;DHT22;38546;48.170;11.724;2023-04-15T13:14:06;9.70;99.90
3488;DHT22;38546;48.170;11.724;2023-04-15T13:16:56;9.70;99.90
3488;DHT22;38546;48.170;11.724;2023-04-15T13:19:46;9.60;99.90
3488;DHT22;38546;48.170;11.724;2023-04-15T13:22:35;9.50;99.90
3488;DHT22;38546;48.170;11.724;2023-04-15T13:25:24;9.50;99.90
3488;DHT22;38546;48.170;11.724;2023-04-15T13:28:14;9.40;99.90
3488;DHT22;38546;48.170;11.724;2023-04-15T13:31:04;9.30;99.90
3488;DHT22;38546;48.170;11.724;2023-04-15T13:33:54;9.20;99.90
3488;DHT22;38546;48.170;11.724;2023-04-15T13:36:44;9.20;99.90
3488;DHT22;38546;48.170;11.724;2023-04-15T13:39:34;9.30;99.90
3488;DHT22;38546;48.170;11.724;2023-04-15T13:42:23;9.20;99.90
3488;DHT22;38546;48.170;11.724;2023-04-15T13:45:13;9.10;99.90
3488;DHT22;38546;48.170;11.724;2023-04-15T13:48:03;9.10;99.90
3488;DHT22;38546;48.170;11.724;2023-04-15T13:50:52;9.20;99.90
3488;DHT22;38546;48.170;11.724;2023-04-15T13:53:41;9.10;99.90
3488;DHT22;38546;48.170;11.724;2023-04-15T13:56:30;9.10;99.90
3488;DHT22;38546;48.170;11.724;2023-04-15T13:59:20;9.20;99.90
3488;DHT22;38546;48.170;11.724;2023-04-15T14:02:09;9.10;99.90
3488;DHT22;38546;48.170;11.724;2023-04-15T14:04:58;9.20;99.90
3488;DHT22;38546;48.170;11.724;2023-04-15T14:07:48;9.20;99.90
3488;DHT22;38546;48.170;11.724;2023-04-15T14:10:37;9.40;99.90
3488;DHT22;38546;48.170;11.724;2023-04-15T14:13:27;9.40;99.90
3488;DHT22;38546;48.170;11.724;2023-04-15T14:16:16;9.30;99.90
3488;DHT22;38546;48.170;11.724;2023-04-15T14:19:06;9.30;99.90
3488;DHT22;38546;48.170;11.724;2023-04-15T14:21:55;9.30;99.90
3488;DHT22;38546;48.170;11.724;2023-04-15T14:24:44;9.30;99.90
3488;DHT22;38546;48.170;11.724;2023-04-15T14:27:34;9.40;99.90
3488;DHT22;38546;48.170;11.724;2023-04-15T14:30:23;9.50;99.90
3488;DHT22;38546;48.170;11.724;2023-04-15T14:33:13;9.40;99.90
3488;DHT22;38546;48.170;11.724;2023-04-15T14:36:02;9.40;99.90
3488;DHT22;38546;48.170;11.724;2023-04-15T14:38:52;9.40;99.90
3488;DHT22;38546;48.170;11.724;2023-04-15T14:41:42;9.40;99.90
3488;DHT22;38546;48.170;11.724;2023-04-15T14:44:31;9.40;99.90
3488;DHT22;38546;48.170;11.724;2023-04-15T14:47:20;9.50;99.90
3488;DHT22;38546;48.170;11.724;2023-04-15T14:50:09;9.30;99.90
3488;DHT22;38546;48.170;11.724;2023-04-15T14:52:59;9.30;99.90
3488;DHT22;38546;48.170;11.724;2023-04-15T14:55:49;9.40;99.90
3488;DHT22;38546;48.170;11.724;2023-04-15T14:58:38;9.30;99.90
3488;DHT22;38546;48.170;11.724;2023-04-15T15:01:27;9.30;99.90
3488;DHT22;38546;48.170;11.724;2023-04-15T15:04:16;9.40;99.90
3488;DHT22;38546;48.170;11.724;2023-04-15T15:07:06;9.30;99.90
3488;DHT22;38546;48.170;11.724;2023-04-15T15:09:55;9.20;99.90
3488;DHT22;38546;48.170;11.724;2023-04-15T15:12:44;9.30;99.90
3488;DHT22;38546;48.170;11.724;2023-04-15T15:15:34;9.10;99.90
3488;DHT22;38546;48.170;11.724;2023-04-15T15:18:25;9.20;99.90
3488;DHT22;38546;48.170;11.724;2023-04-15T15:21:15;9.00;99.90
3488;DHT22;38546;48.170;11.724;2023-04-15T15:24:04;8.80;99.90
3488;DHT22;38546;48.170;11.724;2023-04-15T15:26:54;8.80;99.90
3488;DHT22;38546;48.170;11.724;2023-04-15T15:29:45;8.90;99.90
3488;DHT22;38546;48.170;11.724;2023-04-15T15:32:34;8.80;99.90
3488;DHT22;38546;48.170;11.724;2023-04-15T15:35:24;8.80;99.90
3488;DHT22;38546;48.170;11.724;2023-04-15T15:38:14;8.60;99.90
3488;DHT22;38546;48.170;11.724;2023-04-15T15:41:03;8.50;99.90
3488;DHT22;38546;48.170;11.724;2023-04-15T15:43:53;8.30;99.90
3488;DHT22;38546;48.170;11.724;2023-04-15T15:46:42;8.20;99.90
3488;DHT22;38546;48.170;11.724;2023-04-15T15:49:31;8.10;99.90
3488;DHT22;38546;48.170;11.724;2023-04-15T15:52:20;8.20;99.90
3488;DHT22;38546;48.170;11.724;2023-04-15T15:55:09;8.10;99.90
3488;DHT22;38546;48.170;11.724;2023-04-15T15:57:58;8.10;99.90
3488;DHT22;38546;48.170;11.724;2023-04-15T16:00:47;8.10;99.90
3488;DHT22;38546;48.170;11.724;2023-04-15T16:03:36;8.00;99.90
3488;DHT22;38546;48.170;11.724;2023-04-15T16:06:25;8.00;99.90
3488;DHT22;38546;48.170;11.724;2023-04-15T16:09:14;7.90;99.90
3488;DHT22;38546;48.170;11.724;2023-04-15T16:12:04;8.00;99.90
3488;DHT22;38546;48.170;11.724;2023-04-15T16:14:54;7.90;99.90
3488;DHT22;38546;48.170;11.724;2023-04-15T16:17:42;7.90;99.90
3488;DHT22;38546;48.170;11.724;2023-04-15T16:20:31;7.90;99.90
3488;DHT22;38546;48.170;11.724;2023-04-15T16:23:20;7.80;99.90
3488;DHT22;38546;48.170;11.724;2023-04-15T16:26:11;7.80;99.90
3488;DHT22;38546;48.170;11.724;2023-04-15T16:29:00;7.70;99.90
3488;DHT22;38546;48.170;11.724;2023-04-15T16:31:49;7.90;99.90
3488;DHT22;38546;48.170;11.724;2023-04-15T16:34:38;7.70;99.90
3488;DHT22;38546;48.170;11.724;2023-04-15T16:37:29;7.80;99.90
3488;DHT22;38546;48.170;11.724;2023-04-15T16:40:19;7.70;99.90
3488;DHT22;38546;48.170;11.724;2023-04-15T16:43:08;7.70;99.90
3488;DHT22;38546;48.170;11.724;2023-04-15T16:45:59;7.70;99.90
3488;DHT22;38546;48.170;11.724;2023-04-15T16:48:48;7.80;99.90
3488;DHT22;38546;48.170;11.724;2023-04-15T16:51:37;7.70;99.90
3488;DHT22;38546;48.170;11.724;2023-04-15T16:54:26;7.70;99.90
3488;DHT22;38546;48.170;11.724;2023-04-15T16:57:17;7.70;99.90
3488;DHT22;38546;48.170;11.724;2023-04-15T17:00:07;7.50;99.90
3488;DHT22;38546;48.170;11.724;2023-04-15T17:03:00;7.60;99.90
3488;DHT22;38546;48.170;11.724;2023-04-15T17:05:49;7.70;99.90
3488;DHT22;38546;48.170;11.724;2023-04-15T17:08:38;7.60;99.90
3488;DHT22;38546;48.170;11.724;2023-04-15T17:11:28;7.50;99.90
3488;DHT22;38546;48.170;11.724;2023-04-15T17:14:16;7.60;99.90
3488;DHT22;38546;48.170;11.724;2023-04-15T17:17:05;7.40;99.90
3488;DHT22;38546;48.170;11.724;2023-04-15T17:19:54;7.20;99.90
3488;DHT22;38546;48.170;11.724;2023-04-15T17:22:44;7.10;99.90
3488;DHT22;38546;48.170;11.724;2023-04-15T17:25:34;7.20;99.90
3488;DHT22;38546;48.170;11.724;2023-04-15T17:28:23;7.20;99.90
3488;DHT22;38546;48.170;11.724;2023-04-15T17:31:12;7.10;99.90
3488;DHT22;38546;48.170;11.724;2023-04-15T17:34:00;7.10;99.90
3488;DHT22;38546;48.170;11.724;2023-04-15T17:36:49;7.00;99.90
3488;DHT22;38546;48.170;11.724;2023-04-15T17:39:39;7.00;99.90
3488;DHT22;38546;48.170;11.724;2023-04-15T17:42:28;7.10;99.90
3488;DHT22;38546;48.170;11.724;2023-04-15T17:45:17;7.10;99.90
3488;DHT22;38546;48.170;11.724;2023-04-15T17:48:06;7.00;99.90
3488;DHT22;38546;48.170;11.724;2023-04-15T17:50:55;6.90;99.90
3488;DHT22;38546;48.170;11.724;2023-04-15T17:53:44;7.00;99.90
3488;DHT22;38546;48.170;11.724;2023-04-15T17:56:33;7.00;99.90
3488;DHT22;38546;48.170;11.724;2023-04-15T17:59:22;7.00;99.90
3488;DHT22;38546;48.170;11.724;2023-04-15T18:02:12;7.00;99.90
3488;DHT22;38546;48.170;11.724;2023-04-15T18:05:02;7.10;99.90
3488;DHT22;38546;48.170;11.724;2023-04-15T18:07:52;6.90;99.90
3488;DHT22;38546;48.170;11.724;2023-04-15T18:10:41;6.80;99.90
3488;DHT22;38546;48.170;11.724;2023-04-15T18:13:30;7.00;99.90
3488;DHT22;38546;48.170;11.724;2023-04-15T18:16:19;6.80;99.90